Worland, WY

4:11 PM MDT on August 30, 2014 (GMT -0600)
Worland Municipal | Change Station
CLOSE
Current Station
Airport
Location: Worland,
Elevation: 4226 ft
Nearby Weather Stations
Active Advisory: Special Statement

Elev 4226 ft 43.97 °N, 107.95 °W | Updated 18 minutes ago

Partly Cloudy
Partly Cloudy
69 °F
Feels Like 69 °F
N
20
Wind Variable Wind from North
Gusts 36 mph

Today
High -- | Low -- °F
--% Chance of Precip.
Yesterday
High -- | Low -- °F
Precip. -- in
6:32 AM 7:51 PM
Waxing Crescent, 25% visible
Pressure 29.68 in
Visibility 10.0 miles
Clouds Few 1200 ft
Dew Point 47 °F
Humidity 45%
Rainfall 0.00 in
Snow Depth Not available.
UV 5 out of 12
Pollen 8.50 out of 12
Air Quality Not available.
Flu Activity Not available.
METAR KWRL 302153Z AUTO 36017G31KT 10SM FEW012 21/08 A2978 RMK AO2 PK WND 35038/2127 LTG DSNT SW-NW SLP051 T02060083

More Conditions Fewer Conditions

Pressure 29.68 in
Visibility 10.0 miles
Clouds Few 1200 ft
Dew Point 47 °F
Humidity 45%
Rainfall 0.00 in
Snow Depth Not available.
UV 5 out of 12
Pollen 8.50 out of 12
Air Quality Not available.
Flu Activity Not available.
METAR KWRL 302153Z AUTO 36017G31KT 10SM FEW012 21/08 A2978 RMK AO2 PK WND 35038/2127 LTG DSNT SW-NW SLP051 T02060083

More Conditions Fewer Conditions

10-Day Weather Forecast

Almanac

Astronomy

Aug. 30, 2014 Rise Set
Actual Time 6:32 AM MDT 7:51 PM MDT
Civil Twilight 6:02 AM MDT 8:20 PM MDT
Nautical Twilight 5:26 AM MDT 8:56 PM MDT
Astronomical Twilight 4:48 AM MDT 9:34 PM MDT
Moon 11:34 AM MDT 10:15 PM MDT
Length of Visible Light 14h 18m
Length of Day
13h 18m
Tomorrow will be 2m 55s shorter.
Waxing Crescent, 25% of the Moon is Illuminated
Today
Waxing Crescent
Sep 2
First Quarter
Sep 8
Full
Sep 15
Last Quarter
Sep 24
New

Today's Extremes

State Highs State Lows

Community

WunderPhotos

Upload Photos

1,748,657 photos uploaded!

WunderBlogs® & News

Nearby

Snow Depth

Station Depth Elevation
Shell Creek 0 in 9580 ft
Bone Springs Divide 0 in 9350 ft
Hansen Sawmill 0 in 8360 ft
Burgess Junction 0 in 7880 ft
Marquette 1 in 8760 ft

Earthquake Activity

City Distance Mag. Time & Date
No recent earthquake activity has been reported nearby.
Minimum magnitude displayed is 2.5.

Coastal Water Temperatures

Place Temperature
No Stations Reporting

Nearby Weather Stations